8NK4 weather

Bethany Airpark
Bethany Center, New York, United States

Public forecast

Using degrees Fahrenheit for public forecast. Weather courtesy of forecast.io.

Closest aviation weather report (METAR) to Bethany Airpark

Closest report is Greater Rochester International Airport, 23.0 nm (42.6 km) ENE. Retrieved 2020/05/26 02:54 UTC (1 hour ago):

KROC 260254Z 00000KT 10SM CLR 23/17 A3007 RMK AO2 SLP184 T02280172 53012

Closest aviation forecast (TAF) to Bethany Airpark

Closest forecast is Greater Rochester International Airport, 23.0 nm (42.6 km) ENE. Retrieved 2020-05-26 00:33 UTC (3 hours ago):

TAF KROC 252330Z 2600/2624 VRB04KT P6SM FEW250 FM260600 20004KT P6SM SKC FM261500 20006KT P6SM SCT050 SCT250 FM261800 17004KT P6SM BKN050